createdAt,value
2022-09-04T00:01:29.401Z,13.02
2022-09-04T00:04:25.939Z,13.13
2022-09-04T00:07:29.588Z,13.15
2022-09-04T00:10:30.160Z,13.16
2022-09-04T00:13:06.992Z,13.17
2022-09-04T00:15:49.476Z,13.23
2022-09-04T00:18:25.644Z,13.26
2022-09-04T00:21:11.651Z,13.15
2022-09-04T00:23:58.047Z,13.14
2022-09-04T00:26:30.593Z,13.13
2022-09-04T00:29:04.575Z,13.11
2022-09-04T00:31:39.041Z,13.20
2022-09-04T00:34:15.150Z,13.22
2022-09-04T00:36:49.965Z,13.27
2022-09-04T00:39:22.555Z,13.30
2022-09-04T00:42:08.501Z,13.30
2022-09-04T00:44:49.184Z,13.24
2022-09-04T00:47:33.387Z,13.21
2022-09-04T00:50:14.738Z,13.22
2022-09-04T00:52:44.717Z,13.18
2022-09-04T00:55:38.954Z,13.10
2022-09-04T00:58:21.787Z,13.12
2022-09-04T01:00:49.479Z,13.17
2022-09-04T01:03:34.244Z,13.18
2022-09-04T01:06:31.842Z,13.23
2022-09-04T01:09:07.042Z,13.24
2022-09-04T01:11:57.392Z,13.26
2022-09-04T01:14:44.327Z,13.29
2022-09-04T01:17:25.907Z,13.25
2022-09-04T01:20:31.292Z,13.31
2022-09-04T01:23:25.764Z,13.28
2022-09-04T01:26:21.331Z,13.17
2022-09-04T01:29:21.192Z,13.05
2022-09-04T01:31:54.610Z,12.92
2022-09-04T01:34:50.651Z,12.92
2022-09-04T01:37:41.995Z,13.13
2022-09-04T01:40:23.666Z,13.07
2022-09-04T01:43:17.590Z,13.15
2022-09-04T01:46:28.885Z,13.21
2022-09-04T01:49:13.544Z,13.30
2022-09-04T01:51:48.580Z,13.32
2022-09-04T01:54:37.751Z,13.08
2022-09-04T01:57:33.272Z,12.91
2022-09-04T02:00:13.747Z,12.97
2022-09-04T02:02:52.977Z,13.08
2022-09-04T02:05:37.538Z,13.15
2022-09-04T02:08:57.887Z,13.28
2022-09-04T02:11:28.457Z,13.23
2022-09-04T02:14:17.701Z,13.19
2022-09-04T02:17:23.769Z,13.22
2022-09-04T02:20:11.894Z,13.26
2022-09-04T02:22:48.777Z,13.19
2022-09-04T02:25:52.958Z,13.18
2022-09-04T02:28:39.930Z,13.16
2022-09-04T02:31:21.104Z,13.22
2022-09-04T02:34:12.697Z,13.17
2022-09-04T02:36:53.297Z,13.26
2022-09-04T02:39:53.909Z,13.22
2022-09-04T02:42:39.735Z,13.31
2022-09-04T02:45:43.747Z,13.36
2022-09-04T02:49:02.272Z,13.40
2022-09-04T02:51:36.114Z,13.42
2022-09-04T02:54:27.563Z,13.43
2022-09-04T02:57:29.275Z,13.43
2022-09-04T03:00:09.364Z,13.35
2022-09-04T03:02:53.036Z,13.16
2022-09-04T03:05:25.317Z,13.28
2022-09-04T03:07:54.787Z,13.37
2022-09-04T03:10:31.298Z,13.43
2022-09-04T03:13:06.522Z,13.30
2022-09-04T03:16:12.667Z,13.35
2022-09-04T03:18:39.135Z,13.38
2022-09-04T03:21:17.340Z,13.39
2022-09-04T03:24:05.630Z,13.34
2022-09-04T03:26:44.518Z,13.39
2022-09-04T03:29:24.206Z,13.45
2022-09-04T03:31:58.633Z,13.46
2022-09-04T03:34:38.526Z,13.49
2022-09-04T03:37:28.806Z,13.43
2022-09-04T03:40:18.370Z,13.41
2022-09-04T03:43:10.922Z,13.41
2022-09-04T03:45:43.584Z,13.49
2022-09-04T03:48:47.549Z,13.51
2022-09-04T03:51:48.295Z,13.47
2022-09-04T03:55:05.522Z,13.55
2022-09-04T03:57:43.064Z,13.46
2022-09-04T04:00:19.989Z,13.30
2022-09-04T04:03:19.286Z,13.32
2022-09-04T04:06:05.510Z,13.34
2022-09-04T04:08:36.220Z,13.33
2022-09-04T04:11:19.634Z,13.39
2022-09-04T04:14:21.905Z,13.41
2022-09-04T04:17:00.147Z,13.39
2022-09-04T04:19:55.433Z,13.46
2022-09-04T04:22:22.236Z,13.45
2022-09-04T04:25:02.203Z,13.44
2022-09-04T04:27:40.516Z,13.45
2022-09-04T04:30:09.828Z,13.44
2022-09-04T04:33:03.321Z,13.44
2022-09-04T04:35:43.771Z,13.46
2022-09-04T04:38:28.580Z,13.43
2022-09-04T04:41:17.148Z,13.50
2022-09-04T04:44:16.436Z,13.57
2022-09-04T04:47:01.558Z,13.54
2022-09-04T04:49:54.719Z,13.54
2022-09-04T04:52:44.182Z,13.60
2022-09-04T04:55:13.806Z,13.67
2022-09-04T04:57:46.449Z,13.69
2022-09-04T05:00:39.149Z,13.73
2022-09-04T05:03:33.332Z,13.67
2022-09-04T05:06:12.782Z,13.71
2022-09-04T05:08:54.405Z,13.52
2022-09-04T05:11:32.192Z,13.60
2022-09-04T05:14:22.842Z,13.62
2022-09-04T05:16:59.889Z,13.46
2022-09-04T05:19:38.485Z,13.52
2022-09-04T05:22:15.470Z,13.67
2022-09-04T05:24:50.323Z,13.68
2022-09-04T05:27:22.344Z,13.70
2022-09-04T05:30:04.135Z,13.77
2022-09-04T05:32:35.441Z,13.83
2022-09-04T05:35:06.846Z,13.85
2022-09-04T05:37:59.103Z,13.84
2022-09-04T05:40:52.668Z,13.93
2022-09-04T05:43:50.281Z,13.90
2022-09-04T05:46:25.828Z,13.84
2022-09-04T05:49:00.910Z,13.93
2022-09-04T05:51:39.305Z,13.90
2022-09-04T05:54:17.916Z,13.90
2022-09-04T05:57:12.260Z,13.90
2022-09-04T06:00:17.347Z,13.96
2022-09-04T06:03:07.467Z,13.95
2022-09-04T06:06:04.919Z,14.06
2022-09-04T06:08:43.933Z,14.20
2022-09-04T06:11:48.509Z,13.70
2022-09-04T06:14:33.025Z,13.88
2022-09-04T06:17:31.725Z,14.16
2022-09-04T06:20:07.427Z,14.35
2022-09-04T06:23:09.309Z,14.08
2022-09-04T06:26:07.513Z,14.16
2022-09-04T06:29:05.589Z,14.58
2022-09-04T06:31:47.720Z,14.37
2022-09-04T06:34:32.231Z,14.69
2022-09-04T06:37:13.572Z,14.66
2022-09-04T06:39:59.894Z,14.96
2022-09-04T06:43:03.737Z,15.10
2022-09-04T06:45:42.136Z,15.20
2022-09-04T06:48:18.843Z,14.88
2022-09-04T06:50:59.111Z,15.02
2022-09-04T06:53:42.484Z,15.29
2022-09-04T06:56:18.328Z,15.42
2022-09-04T06:59:01.355Z,15.64
2022-09-04T07:01:43.185Z,15.87
2022-09-04T07:04:31.412Z,15.66
2022-09-04T07:07:06.748Z,15.86
2022-09-04T07:09:41.835Z,16.09
2022-09-04T07:12:50.400Z,15.75
2022-09-04T07:15:44.651Z,15.32
2022-09-04T07:18:33.920Z,15.65
2022-09-04T07:21:18.262Z,15.86
2022-09-04T07:24:00.957Z,16.09
2022-09-04T07:26:37.838Z,16.07
2022-09-04T07:29:35.410Z,16.23
2022-09-04T07:32:11.491Z,16.27
2022-09-04T07:34:42.233Z,16.33
2022-09-04T07:37:25.070Z,16.33
2022-09-04T07:40:09.562Z,16.09
2022-09-04T07:43:00.139Z,16.08
2022-09-04T07:45:48.665Z,16.19
2022-09-04T07:48:42.348Z,16.54
2022-09-04T07:51:15.562Z,16.70
2022-09-04T07:54:11.562Z,16.77
2022-09-04T07:57:03.651Z,16.83
2022-09-04T07:59:45.432Z,16.97
2022-09-04T08:02:26.906Z,16.98
2022-09-04T08:05:33.734Z,16.78
2022-09-04T08:08:22.306Z,17.34
2022-09-04T08:11:28.887Z,17.62
2022-09-04T08:14:20.580Z,17.23
2022-09-04T08:17:24.430Z,17.48
2022-09-04T08:20:28.891Z,17.39
2022-09-04T08:23:01.909Z,17.39
2022-09-04T08:25:53.514Z,17.92
2022-09-04T08:28:24.394Z,17.84
2022-09-04T08:31:08.060Z,17.52
2022-09-04T08:34:12.231Z,18.05
2022-09-04T08:37:00.152Z,18.94
2022-09-04T08:39:54.784Z,18.49
2022-09-04T08:42:54.101Z,18.80
2022-09-04T08:45:20.589Z,18.70
2022-09-04T08:47:53.562Z,18.90
2022-09-04T08:50:27.318Z,19.31
2022-09-04T08:53:12.214Z,19.03
2022-09-04T08:55:58.601Z,19.45
2022-09-04T08:58:55.273Z,19.79
2022-09-04T09:01:43.951Z,19.76
2022-09-04T09:04:27.378Z,19.87
2022-09-04T09:07:24.967Z,19.97
2022-09-04T09:10:02.778Z,19.89
2022-09-04T09:12:55.148Z,20.07
2022-09-04T09:15:48.766Z,20.20
2022-09-04T09:18:18.079Z,20.47
2022-09-04T09:21:14.642Z,20.72
2022-09-04T09:24:17.951Z,21.09
2022-09-04T09:27:12.291Z,21.53
2022-09-04T09:30:05.327Z,21.67
2022-09-04T09:33:03.877Z,21.52
2022-09-04T09:35:51.576Z,21.99
2022-09-04T09:38:36.354Z,22.30
2022-09-04T09:41:45.295Z,22.10
2022-09-04T09:44:23.681Z,22.03
2022-09-04T09:47:31.301Z,22.55
2022-09-04T09:50:15.541Z,22.69
2022-09-04T09:53:00.324Z,22.76
2022-09-04T09:55:33.528Z,23.24
2022-09-04T09:58:10.619Z,23.18
2022-09-04T10:00:57.169Z,22.40
2022-09-04T10:03:39.172Z,23.15
2022-09-04T10:06:17.621Z,23.49
2022-09-04T10:08:52.944Z,23.61
2022-09-04T10:11:23.632Z,23.46
2022-09-04T10:14:25.124Z,23.74
2022-09-04T10:17:09.934Z,23.92
2022-09-04T10:19:46.350Z,24.09
2022-09-04T10:22:31.354Z,24.38
2022-09-04T10:25:26.013Z,24.34
2022-09-04T10:28:34.758Z,24.52
2022-09-04T10:31:25.698Z,24.13
2022-09-04T10:34:07.719Z,23.79
2022-09-04T10:37:06.431Z,24.43
2022-09-04T10:40:22.415Z,24.78
2022-09-04T10:43:10.118Z,25.73
2022-09-04T10:45:46.804Z,25.87
2022-09-04T10:48:28.833Z,25.92
2022-09-04T10:51:23.175Z,26.00
2022-09-04T10:54:08.255Z,25.71
2022-09-04T10:57:11.864Z,26.32
2022-09-04T10:59:47.298Z,26.32
2022-09-04T11:02:33.133Z,26.18
2022-09-04T11:05:18.800Z,26.85
2022-09-04T11:07:56.353Z,26.10
2022-09-04T11:10:38.183Z,26.58
2022-09-04T11:13:23.167Z,26.53
2022-09-04T11:16:44.334Z,26.63
2022-09-04T11:19:48.147Z,26.89
2022-09-04T11:22:34.892Z,26.46
2022-09-04T11:25:45.513Z,25.93
2022-09-04T11:28:44.217Z,26.02
2022-09-04T11:31:39.825Z,25.38
2022-09-04T11:34:40.668Z,24.89
2022-09-04T11:37:37.987Z,24.70
2022-09-04T11:40:19.001Z,24.79
2022-09-04T11:42:54.584Z,24.47
2022-09-04T11:45:48.751Z,23.96
2022-09-04T11:48:47.487Z,24.21
2022-09-04T11:51:40.546Z,24.14
2022-09-04T11:54:23.463Z,24.03
2022-09-04T11:57:23.477Z,24.22
2022-09-04T12:00:09.008Z,23.99
2022-09-04T12:02:47.514Z,23.68
2022-09-04T12:05:41.731Z,23.87
2022-09-04T12:08:27.129Z,24.09
2022-09-04T12:11:32.188Z,24.15
2022-09-04T12:14:26.174Z,24.42
2022-09-04T12:17:30.001Z,24.63
2022-09-04T12:20:33.848Z,25.23
2022-09-04T12:23:37.688Z,25.96
2022-09-04T12:26:17.943Z,26.27
2022-09-04T12:29:06.477Z,26.65
2022-09-04T12:32:11.690Z,26.59
2022-09-04T12:34:49.037Z,27.38
2022-09-04T12:37:34.434Z,27.78
2022-09-04T12:40:25.838Z,27.26
2022-09-04T12:43:24.675Z,26.73
2022-09-04T12:46:19.356Z,26.53
2022-09-04T12:49:26.149Z,26.37
2022-09-04T12:52:19.192Z,26.57
2022-09-04T12:55:02.163Z,26.70
2022-09-04T12:58:06.982Z,27.08
2022-09-04T13:01:15.262Z,27.69
2022-09-04T13:03:58.802Z,26.49
2022-09-04T13:06:41.954Z,25.98
2022-09-04T13:09:27.245Z,25.65
2022-09-04T13:12:12.466Z,25.30
2022-09-04T13:15:07.823Z,25.17
2022-09-04T13:17:43.459Z,25.24
2022-09-04T13:20:26.013Z,25.08
2022-09-04T13:23:27.447Z,25.25
2022-09-04T13:28:37.873Z,25.38
2022-09-04T13:31:19.474Z,25.25
2022-09-04T13:34:15.999Z,25.11
2022-09-04T13:36:55.385Z,25.16
2022-09-04T13:39:49.322Z,25.37
2022-09-04T13:42:42.541Z,25.04
2022-09-04T13:45:29.887Z,25.13
2022-09-04T13:48:06.246Z,24.89
2022-09-04T13:50:40.248Z,24.90
2022-09-04T13:53:16.567Z,25.15
2022-09-04T13:55:54.228Z,24.59
2022-09-04T13:58:27.897Z,24.79
2022-09-04T14:01:07.234Z,25.08
2022-09-04T14:03:52.548Z,24.86
2022-09-04T14:06:23.341Z,25.22
2022-09-04T14:09:04.619Z,25.18
2022-09-04T14:11:50.936Z,25.27
2022-09-04T14:14:41.165Z,24.80
2022-09-04T14:17:09.508Z,24.85
2022-09-04T14:19:46.722Z,24.92
2022-09-04T14:22:33.479Z,24.89
2022-09-04T14:25:30.292Z,24.71
2022-09-04T14:28:30.315Z,24.76
2022-09-04T14:31:10.733Z,24.81
2022-09-04T14:33:44.066Z,24.93
2022-09-04T14:36:20.283Z,25.00
2022-09-04T14:39:04.882Z,24.88
2022-09-04T14:41:46.281Z,25.00
2022-09-04T14:44:25.006Z,25.34
2022-09-04T14:46:59.262Z,25.26
2022-09-04T14:49:31.627Z,25.06
2022-09-04T14:52:09.664Z,24.43
2022-09-04T14:54:43.503Z,24.75
2022-09-04T14:57:17.670Z,25.13
2022-09-04T15:00:11.320Z,25.16
2022-09-04T15:02:45.396Z,25.23
2022-09-04T15:05:19.653Z,25.39
2022-09-04T15:07:56.253Z,24.84
2022-09-04T15:10:25.972Z,24.85
2022-09-04T15:13:19.382Z,24.97
2022-09-04T15:15:52.805Z,25.22
2022-09-04T15:18:35.101Z,25.34
2022-09-04T15:21:08.817Z,25.45
2022-09-04T15:23:55.552Z,25.30
2022-09-04T15:26:28.311Z,25.57
2022-09-04T15:29:18.263Z,25.22
2022-09-04T15:31:45.004Z,25.44
2022-09-04T15:34:25.793Z,25.55
2022-09-04T15:36:53.520Z,25.38
2022-09-04T15:39:32.093Z,25.50
2022-09-04T15:41:59.430Z,25.49
2022-09-04T15:44:39.593Z,25.29
2022-09-04T15:47:23.179Z,25.30
2022-09-04T15:49:55.497Z,25.06
2022-09-04T15:52:31.293Z,25.14
2022-09-04T15:55:16.362Z,24.84
2022-09-04T15:57:46.540Z,24.70
2022-09-04T16:00:15.670Z,24.41
2022-09-04T16:03:00.255Z,24.58
2022-09-04T16:05:44.776Z,24.69
2022-09-04T16:08:20.381Z,24.67
2022-09-04T16:10:49.720Z,24.57
2022-09-04T16:13:25.325Z,24.48
2022-09-04T16:16:22.946Z,24.35
2022-09-04T16:19:00.516Z,24.16
2022-09-04T16:21:50.438Z,24.00
2022-09-04T16:24:40.082Z,23.88
2022-09-04T16:27:10.368Z,23.51
2022-09-04T16:29:45.748Z,23.44
2022-09-04T16:32:20.346Z,23.50
2022-09-04T16:34:59.641Z,23.45
2022-09-04T16:37:36.336Z,23.31
2022-09-04T16:40:13.030Z,23.13
2022-09-04T16:42:59.923Z,23.13
2022-09-04T16:45:43.457Z,23.16
2022-09-04T16:48:35.508Z,23.04
2022-09-04T16:51:40.442Z,23.00
2022-09-04T16:54:16.929Z,23.01
2022-09-04T16:57:12.493Z,23.08
2022-09-04T16:59:54.048Z,22.47
2022-09-04T17:02:59.004Z,22.57
2022-09-04T17:05:36.035Z,22.29
2022-09-04T17:08:08.454Z,22.11
2022-09-04T17:10:49.643Z,21.92
2022-09-04T17:13:50.464Z,21.81
2022-09-04T17:16:22.141Z,21.68
2022-09-04T17:18:53.540Z,21.71
2022-09-04T17:26:19.865Z,21.63
2022-09-04T17:29:07.927Z,21.50
2022-09-04T17:29:09.933Z,21.47
2022-09-04T17:31:14.431Z,21.43
2022-09-04T17:38:23.018Z,21.17
2022-09-04T17:40:51.891Z,20.98
2022-09-04T17:40:53.290Z,21.01
2022-09-04T17:42:57.090Z,20.65
2022-09-04T17:46:00.326Z,20.37
2022-09-04T17:48:31.394Z,20.26
2022-09-04T17:51:04.380Z,20.09
2022-09-04T17:53:35.857Z,19.95
2022-09-04T17:56:19.832Z,19.86
2022-09-04T17:59:03.161Z,19.74
2022-09-04T18:01:43.046Z,19.67
2022-09-04T18:04:20.356Z,19.70
2022-09-04T18:06:56.692Z,19.53
2022-09-04T18:09:33.050Z,19.39
2022-09-04T18:12:24.578Z,19.35
2022-09-04T18:15:23.059Z,19.18
2022-09-04T18:18:05.456Z,19.06
2022-09-04T18:20:55.148Z,19.01
2022-09-04T18:23:48.176Z,18.92
2022-09-04T18:26:40.507Z,18.73
2022-09-04T18:33:55.610Z,18.61
2022-09-04T18:37:17.802Z,18.50
2022-09-04T18:37:23.987Z,18.56
2022-09-04T18:39:08.849Z,18.39
2022-09-04T18:50:23.775Z,18.27
2022-09-04T18:50:24.612Z,18.19
2022-09-04T18:50:33.993Z,18.14
2022-09-04T18:54:00.709Z,17.93
2022-09-04T18:56:43.678Z,17.94
2022-09-04T18:59:32.796Z,17.91
2022-09-04T19:02:11.530Z,17.83
2022-09-04T19:04:43.386Z,17.72
2022-09-04T19:07:31.756Z,17.74
2022-09-04T19:10:06.119Z,17.67
2022-09-04T19:12:47.497Z,17.68
2022-09-04T19:15:58.668Z,17.54
2022-09-04T19:18:45.296Z,17.44
2022-09-04T19:21:14.754Z,17.44
2022-09-04T19:23:48.520Z,17.31
2022-09-04T19:26:30.468Z,17.29
2022-09-04T19:29:13.633Z,17.24
2022-09-04T19:31:57.468Z,17.10
2022-09-04T19:34:35.410Z,17.03
2022-09-04T19:38:25.736Z,17.07
2022-09-04T19:45:58.957Z,17.01
2022-09-04T19:46:14.472Z,16.96
2022-09-04T19:46:51.522Z,16.87
2022-09-04T19:51:22.213Z,16.80
2022-09-04T19:53:30.584Z,16.81
2022-09-04T19:55:47.527Z,16.66
2022-09-04T19:58:51.577Z,16.67
2022-09-04T20:01:26.198Z,16.51
2022-09-04T20:04:11.008Z,16.48
2022-09-04T20:06:47.228Z,16.49
2022-09-04T20:09:22.995Z,16.46
2022-09-04T20:12:25.749Z,16.51
2022-09-04T20:15:00.322Z,16.38
2022-09-04T20:17:45.550Z,16.31
2022-09-04T20:20:38.725Z,16.29
2022-09-04T20:23:34.805Z,16.31
2022-09-04T20:26:19.445Z,16.31
2022-09-04T20:29:21.947Z,16.24
2022-09-04T20:32:29.157Z,16.12
2022-09-04T20:35:13.175Z,16.11
2022-09-04T20:37:53.577Z,16.04
2022-09-04T20:40:44.293Z,16.05
2022-09-04T20:43:24.277Z,15.99
2022-09-04T20:50:06.806Z,16.01
2022-09-04T20:52:42.576Z,15.94
2022-09-04T20:52:51.801Z,15.81
2022-09-04T20:54:59.694Z,15.83
2022-09-04T21:00:34.806Z,15.73
2022-09-04T21:03:18.656Z,15.66
2022-09-04T21:03:28.855Z,15.69
2022-09-04T21:06:20.724Z,15.61
2022-09-04T21:09:02.637Z,15.54
2022-09-04T21:11:41.965Z,15.56
2022-09-04T21:14:15.177Z,15.58
2022-09-04T21:17:02.453Z,15.54
2022-09-04T21:20:06.610Z,15.47
2022-09-04T21:22:41.180Z,15.39
2022-09-04T21:25:33.057Z,15.46
2022-09-04T21:28:20.918Z,15.32
2022-09-04T21:30:47.334Z,15.33
2022-09-04T21:33:32.265Z,15.30
2022-09-04T21:36:26.809Z,15.25
2022-09-04T21:39:18.879Z,15.21
2022-09-04T21:42:17.081Z,15.16
2022-09-04T21:44:55.786Z,15.13
2022-09-04T21:47:32.794Z,15.01
2022-09-04T21:50:26.626Z,15.04
2022-09-04T21:53:31.744Z,15.06
2022-09-04T22:00:54.813Z,15.07
2022-09-04T22:02:41.131Z,14.96
2022-09-04T22:03:19.401Z,14.93
2022-09-04T22:06:04.218Z,14.95
2022-09-04T22:13:29.997Z,14.95
2022-09-04T22:13:39.965Z,14.84
2022-09-04T22:14:36.097Z,14.83
2022-09-04T22:17:18.805Z,14.76
2022-09-04T22:20:14.362Z,14.80
2022-09-04T22:23:04.690Z,14.75
2022-09-04T22:25:47.666Z,14.76
2022-09-04T22:28:35.827Z,14.75
2022-09-04T22:31:19.552Z,14.74
2022-09-04T22:34:23.391Z,14.68
2022-09-04T22:37:14.677Z,14.65
2022-09-04T22:39:51.658Z,14.65
2022-09-04T22:42:41.734Z,14.64
2022-09-04T22:45:49.759Z,14.60
2022-09-04T22:48:43.069Z,14.58
2022-09-04T22:51:22.833Z,14.55
2022-09-04T22:54:08.034Z,14.56
2022-09-04T22:56:52.849Z,14.54
2022-09-04T22:59:56.086Z,14.52
2022-09-04T23:03:07.049Z,14.52
2022-09-04T23:06:50.950Z,14.35
2022-09-04T23:13:43.410Z,14.33
2022-09-04T23:13:56.569Z,14.30
2022-09-04T23:15:09.076Z,14.32
2022-09-04T23:18:34.968Z,14.26
2022-09-04T23:26:33.135Z,14.24
2022-09-04T23:26:43.217Z,14.26
2022-09-04T23:27:21.634Z,14.24
2022-09-04T23:30:32.445Z,14.22
2022-09-04T23:33:27.470Z,14.16
2022-09-04T23:36:18.021Z,14.12
2022-09-04T23:38:48.356Z,14.06
2022-09-04T23:41:53.359Z,14.08
2022-09-04T23:44:25.963Z,14.06
2022-09-04T23:47:22.420Z,14.06
2022-09-04T23:50:27.150Z,13.98
2022-09-04T23:53:05.497Z,14.00
2022-09-04T23:55:50.051Z,14.01
2022-09-04T23:58:59.987Z,13.95
